sensor_id;sensor_type;location;lat;lon;timestamp;temperature;humidity
52103;DHT22;38101;53.126;6.878;2022-09-20T00:01:29;11.70;99.90
52103;DHT22;38101;53.126;6.878;2022-09-20T00:03:58;11.60;99.90
52103;DHT22;38101;53.126;6.878;2022-09-20T00:06:27;11.60;99.90
52103;DHT22;38101;53.126;6.878;2022-09-20T00:08:53;11.60;99.90
52103;DHT22;38101;53.126;6.878;2022-09-20T00:11:25;11.60;99.90
52103;DHT22;38101;53.126;6.878;2022-09-20T00:13:52;11.50;99.90
52103;DHT22;38101;53.126;6.878;2022-09-20T00:16:34;11.50;99.90
52103;DHT22;38101;53.126;6.878;2022-09-20T00:19:01;11.50;99.90
52103;DHT22;38101;53.126;6.878;2022-09-20T00:21:30;11.50;99.90
52103;DHT22;38101;53.126;6.878;2022-09-20T00:23:56;11.50;99.90
52103;DHT22;38101;53.126;6.878;2022-09-20T00:26:23;11.40;99.90
52103;DHT22;38101;53.126;6.878;2022-09-20T00:28:49;11.40;99.90
52103;DHT22;38101;53.126;6.878;2022-09-20T00:31:16;11.40;99.90
52103;DHT22;38101;53.126;6.878;2022-09-20T00:33:42;11.40;99.90
52103;DHT22;38101;53.126;6.878;2022-09-20T00:36:27;11.40;99.90
52103;DHT22;38101;53.126;6.878;2022-09-20T00:39:00;11.30;99.90
52103;DHT22;38101;53.126;6.878;2022-09-20T00:41:28;11.30;99.90
52103;DHT22;38101;53.126;6.878;2022-09-20T00:43:55;11.20;99.90
52103;DHT22;38101;53.126;6.878;2022-09-20T00:46:34;11.20;99.90
52103;DHT22;38101;53.126;6.878;2022-09-20T00:49:11;11.20;99.90
52103;DHT22;38101;53.126;6.878;2022-09-20T00:51:40;11.10;99.90
52103;DHT22;38101;53.126;6.878;2022-09-20T00:54:08;11.00;99.90
52103;DHT22;38101;53.126;6.878;2022-09-20T00:56:37;10.80;99.90
52103;DHT22;38101;53.126;6.878;2022-09-20T00:59:14;10.80;99.90
52103;DHT22;38101;53.126;6.878;2022-09-20T01:01:42;10.60;99.90
52103;DHT22;38101;53.126;6.878;2022-09-20T01:04:10;10.50;99.90
52103;DHT22;38101;53.126;6.878;2022-09-20T01:06:39;10.50;99.90
52103;DHT22;38101;53.126;6.878;2022-09-20T01:09:06;10.50;99.90
52103;DHT22;38101;53.126;6.878;2022-09-20T01:11:34;10.50;99.90
52103;DHT22;38101;53.126;6.878;2022-09-20T01:14:00;10.50;99.90
52103;DHT22;38101;53.126;6.878;2022-09-20T01:16:28;10.50;99.90
52103;DHT22;38101;53.126;6.878;2022-09-20T01:19:01;10.50;99.90
52103;DHT22;38101;53.126;6.878;2022-09-20T01:21:29;10.50;99.90
52103;DHT22;38101;53.126;6.878;2022-09-20T01:24:21;10.50;99.90
52103;DHT22;38101;53.126;6.878;2022-09-20T01:29:46;10.40;99.90
52103;DHT22;38101;53.126;6.878;2022-09-20T01:32:19;10.40;99.90
52103;DHT22;38101;53.126;6.878;2022-09-20T01:34:48;10.30;99.90
52103;DHT22;38101;53.126;6.878;2022-09-20T01:37:27;10.30;99.90
52103;DHT22;38101;53.126;6.878;2022-09-20T01:43:41;10.30;99.90
52103;DHT22;38101;53.126;6.878;2022-09-20T01:46:40;10.40;99.90
52103;DHT22;38101;53.126;6.878;2022-09-20T01:55:22;10.20;99.90
52103;DHT22;38101;53.126;6.878;2022-09-20T02:04:03;9.90;99.90
52103;DHT22;38101;53.126;6.878;2022-09-20T02:07:03;9.90;99.90
52103;DHT22;38101;53.126;6.878;2022-09-20T02:10:02;9.90;99.90
52103;DHT22;38101;53.126;6.878;2022-09-20T02:26:21;9.60;99.90
52103;DHT22;38101;53.126;6.878;2022-09-20T02:28:54;9.50;99.90
52103;DHT22;38101;53.126;6.878;2022-09-20T02:31:31;9.50;99.90
52103;DHT22;38101;53.126;6.878;2022-09-20T02:39:44;9.60;99.90
52103;DHT22;38101;53.126;6.878;2022-09-20T02:42:22;9.70;99.90
52103;DHT22;38101;53.126;6.878;2022-09-20T02:45:10;9.80;99.90
52103;DHT22;38101;53.126;6.878;2022-09-20T02:47:42;9.80;99.90
52103;DHT22;38101;53.126;6.878;2022-09-20T03:14:59;9.20;99.90
52103;DHT22;38101;53.126;6.878;2022-09-20T03:25:56;8.80;99.90
52103;DHT22;38101;53.126;6.878;2022-09-20T03:34:12;8.60;99.90
52103;DHT22;38101;53.126;6.878;2022-09-20T03:42:19;8.50;99.90
52103;DHT22;38101;53.126;6.878;2022-09-20T03:55:48;8.50;99.90
52103;DHT22;38101;53.126;6.878;2022-09-20T04:04:18;8.40;99.90
52103;DHT22;38101;53.126;6.878;2022-09-20T04:12:20;8.30;99.90
52103;DHT22;38101;53.126;6.878;2022-09-20T04:17:54;8.20;99.90
52103;DHT22;38101;53.126;6.878;2022-09-20T04:20:34;8.20;99.90
52103;DHT22;38101;53.126;6.878;2022-09-20T04:23:17;8.20;99.90
52103;DHT22;38101;53.126;6.878;2022-09-20T04:25:50;8.20;99.90
52103;DHT22;38101;53.126;6.878;2022-09-20T04:28:38;8.20;99.90
52103;DHT22;38101;53.126;6.878;2022-09-20T04:31:42;8.20;99.90
52103;DHT22;38101;53.126;6.878;2022-09-20T04:34:21;8.10;99.90
52103;DHT22;38101;53.126;6.878;2022-09-20T04:37:01;8.10;99.90
52103;DHT22;38101;53.126;6.878;2022-09-20T04:39:56;8.10;99.90
52103;DHT22;38101;53.126;6.878;2022-09-20T04:54:07;8.00;99.90
52103;DHT22;38101;53.126;6.878;2022-09-20T05:00:09;8.00;99.90
52103;DHT22;38101;53.126;6.878;2022-09-20T05:06:00;8.00;99.90
52103;DHT22;38101;53.126;6.878;2022-09-20T05:27:48;8.10;99.90
52103;DHT22;38101;53.126;6.878;2022-09-20T05:35:36;8.10;99.90
52103;DHT22;38101;53.126;6.878;2022-09-20T05:38:14;8.10;99.90
52103;DHT22;38101;53.126;6.878;2022-09-20T05:43:30;8.10;99.90
52103;DHT22;38101;53.126;6.878;2022-09-20T05:46:17;8.10;99.90
52103;DHT22;38101;53.126;6.878;2022-09-20T06:13:48;8.30;99.90
52103;DHT22;38101;53.126;6.878;2022-09-20T06:16:27;8.40;99.90
52103;DHT22;38101;53.126;6.878;2022-09-20T06:19:26;8.50;99.90
52103;DHT22;38101;53.126;6.878;2022-09-20T06:21:55;8.60;99.90
52103;DHT22;38101;53.126;6.878;2022-09-20T06:26:56;8.80;99.90
52103;DHT22;38101;53.126;6.878;2022-09-20T06:29:32;8.90;99.90
52103;DHT22;38101;53.126;6.878;2022-09-20T06:31:59;9.00;99.90
52103;DHT22;38101;53.126;6.878;2022-09-20T06:34:25;9.10;99.90
52103;DHT22;38101;53.126;6.878;2022-09-20T06:43:09;9.40;99.90
52103;DHT22;38101;53.126;6.878;2022-09-20T06:45:39;9.60;99.90
52103;DHT22;38101;53.126;6.878;2022-09-20T06:48:06;9.60;99.90
52103;DHT22;38101;53.126;6.878;2022-09-20T06:50:34;9.70;99.90
52103;DHT22;38101;53.126;6.878;2022-09-20T06:53:01;9.80;99.90
52103;DHT22;38101;53.126;6.878;2022-09-20T06:55:31;9.90;99.90
52103;DHT22;38101;53.126;6.878;2022-09-20T06:57:59;10.00;99.90
52103;DHT22;38101;53.126;6.878;2022-09-20T07:00:25;10.30;99.90
52103;DHT22;38101;53.126;6.878;2022-09-20T07:02:50;10.40;99.90
52103;DHT22;38101;53.126;6.878;2022-09-20T07:05:17;10.40;99.90
52103;DHT22;38101;53.126;6.878;2022-09-20T07:07:46;10.50;99.90
52103;DHT22;38101;53.126;6.878;2022-09-20T07:10:12;10.60;99.90
52103;DHT22;38101;53.126;6.878;2022-09-20T07:12:39;10.60;99.90
52103;DHT22;38101;53.126;6.878;2022-09-20T07:15:06;10.60;99.90
52103;DHT22;38101;53.126;6.878;2022-09-20T07:17:32;10.70;99.90
52103;DHT22;38101;53.126;6.878;2022-09-20T07:19:58;10.70;99.90
52103;DHT22;38101;53.126;6.878;2022-09-20T07:22:25;10.80;99.90
52103;DHT22;38101;53.126;6.878;2022-09-20T07:24:51;10.80;99.90
52103;DHT22;38101;53.126;6.878;2022-09-20T07:27:17;10.90;99.90
52103;DHT22;38101;53.126;6.878;2022-09-20T07:29:43;10.90;99.90
52103;DHT22;38101;53.126;6.878;2022-09-20T07:32:11;10.90;99.90
52103;DHT22;38101;53.126;6.878;2022-09-20T07:34:36;10.90;99.90
52103;DHT22;38101;53.126;6.878;2022-09-20T07:37:02;11.00;99.90
52103;DHT22;38101;53.126;6.878;2022-09-20T07:39:28;11.00;99.90
52103;DHT22;38101;53.126;6.878;2022-09-20T07:41:54;11.10;99.90
52103;DHT22;38101;53.126;6.878;2022-09-20T07:44:20;11.10;99.90
52103;DHT22;38101;53.126;6.878;2022-09-20T07:46:54;11.10;99.90
52103;DHT22;38101;53.126;6.878;2022-09-20T07:49:20;11.20;99.90
52103;DHT22;38101;53.126;6.878;2022-09-20T07:51:49;11.10;99.90
52103;DHT22;38101;53.126;6.878;2022-09-20T07:54:16;11.10;99.90
52103;DHT22;38101;53.126;6.878;2022-09-20T07:56:42;11.10;99.90
52103;DHT22;38101;53.126;6.878;2022-09-20T07:59:09;11.10;99.90
52103;DHT22;38101;53.126;6.878;2022-09-20T08:01:36;11.20;99.90
52103;DHT22;38101;53.126;6.878;2022-09-20T08:04:06;11.20;99.90
52103;DHT22;38101;53.126;6.878;2022-09-20T08:06:36;11.20;99.90
52103;DHT22;38101;53.126;6.878;2022-09-20T08:09:03;11.20;99.90
52103;DHT22;38101;53.126;6.878;2022-09-20T08:11:29;11.20;99.90
52103;DHT22;38101;53.126;6.878;2022-09-20T08:13:57;11.20;99.90
52103;DHT22;38101;53.126;6.878;2022-09-20T08:16:24;11.30;99.90
52103;DHT22;38101;53.126;6.878;2022-09-20T08:18:56;11.30;99.90
52103;DHT22;38101;53.126;6.878;2022-09-20T08:21:23;11.40;99.90
52103;DHT22;38101;53.126;6.878;2022-09-20T08:23:49;11.50;99.90
52103;DHT22;38101;53.126;6.878;2022-09-20T08:26:18;11.60;99.90
52103;DHT22;38101;53.126;6.878;2022-09-20T08:28:45;11.80;99.90
52103;DHT22;38101;53.126;6.878;2022-09-20T08:31:19;11.80;99.90
52103;DHT22;38101;53.126;6.878;2022-09-20T08:33:46;11.90;99.90
52103;DHT22;38101;53.126;6.878;2022-09-20T08:36:14;11.90;99.90
52103;DHT22;38101;53.126;6.878;2022-09-20T08:38:40;12.00;99.90
52103;DHT22;38101;53.126;6.878;2022-09-20T08:44:31;12.20;99.90
52103;DHT22;38101;53.126;6.878;2022-09-20T08:47:08;12.20;99.90
52103;DHT22;38101;53.126;6.878;2022-09-20T08:49:36;12.20;99.90
52103;DHT22;38101;53.126;6.878;2022-09-20T08:52:02;12.30;99.90
52103;DHT22;38101;53.126;6.878;2022-09-20T08:54:31;12.40;99.90
52103;DHT22;38101;53.126;6.878;2022-09-20T08:57:01;12.50;99.90
52103;DHT22;38101;53.126;6.878;2022-09-20T08:59:30;12.50;99.90
52103;DHT22;38101;53.126;6.878;2022-09-20T09:01:56;12.50;99.90
52103;DHT22;38101;53.126;6.878;2022-09-20T09:04:34;12.50;99.90
52103;DHT22;38101;53.126;6.878;2022-09-20T09:07:00;12.60;99.90
52103;DHT22;38101;53.126;6.878;2022-09-20T09:09:27;12.70;99.90
52103;DHT22;38101;53.126;6.878;2022-09-20T09:11:55;12.70;99.90
52103;DHT22;38101;53.126;6.878;2022-09-20T09:14:30;12.80;99.90
52103;DHT22;38101;53.126;6.878;2022-09-20T09:17:21;12.90;99.90
52103;DHT22;38101;53.126;6.878;2022-09-20T09:22:41;13.10;99.90
52103;DHT22;38101;53.126;6.878;2022-09-20T09:30:33;13.40;99.90
52103;DHT22;38101;53.126;6.878;2022-09-20T09:33:28;13.40;99.90
52103;DHT22;38101;53.126;6.878;2022-09-20T09:38:29;13.40;99.90
52103;DHT22;38101;53.126;6.878;2022-09-20T09:41:01;13.30;99.90
52103;DHT22;38101;53.126;6.878;2022-09-20T09:43:29;13.30;99.90
52103;DHT22;38101;53.126;6.878;2022-09-20T09:46:21;13.30;99.90
52103;DHT22;38101;53.126;6.878;2022-09-20T09:51:35;13.30;99.90
52103;DHT22;38101;53.126;6.878;2022-09-20T09:54:02;13.30;99.90
52103;DHT22;38101;53.126;6.878;2022-09-20T10:05:19;13.40;99.90
52103;DHT22;38101;53.126;6.878;2022-09-20T10:08:19;13.50;99.90
52103;DHT22;38101;53.126;6.878;2022-09-20T10:11:06;13.60;99.90
52103;DHT22;38101;53.126;6.878;2022-09-20T10:13:57;13.70;99.90
52103;DHT22;38101;53.126;6.878;2022-09-20T10:16:53;13.70;99.90
52103;DHT22;38101;53.126;6.878;2022-09-20T10:19:47;13.80;99.90
52103;DHT22;38101;53.126;6.878;2022-09-20T10:22:26;13.90;99.90
52103;DHT22;38101;53.126;6.878;2022-09-20T10:30:54;14.10;99.90
52103;DHT22;38101;53.126;6.878;2022-09-20T10:36:37;14.20;99.90
52103;DHT22;38101;53.126;6.878;2022-09-20T10:39:24;14.30;99.90
52103;DHT22;38101;53.126;6.878;2022-09-20T10:47:49;14.30;99.90
52103;DHT22;38101;53.126;6.878;2022-09-20T10:50:49;14.40;99.90
52103;DHT22;38101;53.126;6.878;2022-09-20T10:56:14;14.50;99.90
52103;DHT22;38101;53.126;6.878;2022-09-20T11:05:52;14.90;99.90
52103;DHT22;38101;53.126;6.878;2022-09-20T11:10:37;15.20;99.90
52103;DHT22;38101;53.126;6.878;2022-09-20T11:16:16;15.40;99.90
52103;DHT22;38101;53.126;6.878;2022-09-20T11:18:47;15.40;99.90
52103;DHT22;38101;53.126;6.878;2022-09-20T11:21:30;15.40;99.90
52103;DHT22;38101;53.126;6.878;2022-09-20T11:24:32;15.40;99.90
52103;DHT22;38101;53.126;6.878;2022-09-20T11:27:45;15.30;99.90
52103;DHT22;38101;53.126;6.878;2022-09-20T11:32:34;15.30;99.90
52103;DHT22;38101;53.126;6.878;2022-09-20T11:37:39;15.30;99.90
52103;DHT22;38101;53.126;6.878;2022-09-20T11:42:49;15.30;99.90
52103;DHT22;38101;53.126;6.878;2022-09-20T11:45:18;15.40;99.90
52103;DHT22;38101;53.126;6.878;2022-09-20T11:47:47;15.40;99.90
52103;DHT22;38101;53.126;6.878;2022-09-20T11:56:23;15.60;99.90
52103;DHT22;38101;53.126;6.878;2022-09-20T11:58:55;15.60;99.90
52103;DHT22;38101;53.126;6.878;2022-09-20T12:04:10;15.60;99.90
52103;DHT22;38101;53.126;6.878;2022-09-20T12:06:39;15.70;99.90
52103;DHT22;38101;53.126;6.878;2022-09-20T12:11:47;16.10;99.90
52103;DHT22;38101;53.126;6.878;2022-09-20T12:14:28;16.20;99.90
52103;DHT22;38101;53.126;6.878;2022-09-20T12:16:56;16.20;99.90
52103;DHT22;38101;53.126;6.878;2022-09-20T12:24:38;16.30;99.90
52103;DHT22;38101;53.126;6.878;2022-09-20T12:29:53;16.10;99.90
52103;DHT22;38101;53.126;6.878;2022-09-20T12:32:42;16.00;99.90
52103;DHT22;38101;53.126;6.878;2022-09-20T12:41:15;15.70;99.90
52103;DHT22;38101;53.126;6.878;2022-09-20T12:44:03;15.60;99.90
52103;DHT22;38101;53.126;6.878;2022-09-20T12:46:49;15.60;99.90
52103;DHT22;38101;53.126;6.878;2022-09-20T12:49:26;15.60;99.90
52103;DHT22;38101;53.126;6.878;2022-09-20T13:03:31;16.40;99.90
52103;DHT22;38101;53.126;6.878;2022-09-20T13:11:46;16.80;99.90
52103;DHT22;38101;53.126;6.878;2022-09-20T13:14:23;16.80;99.90
52103;DHT22;38101;53.126;6.878;2022-09-20T13:19:32;16.90;99.90
52103;DHT22;38101;53.126;6.878;2022-09-20T13:22:32;17.00;99.90
52103;DHT22;38101;53.126;6.878;2022-09-20T13:25:04;16.90;99.90
52103;DHT22;38101;53.126;6.878;2022-09-20T13:27:34;16.90;99.90
52103;DHT22;38101;53.126;6.878;2022-09-20T13:32:44;17.00;99.90
52103;DHT22;38101;53.126;6.878;2022-09-20T13:35:15;17.10;99.90
52103;DHT22;38101;53.126;6.878;2022-09-20T13:40:41;17.10;99.90
52103;DHT22;38101;53.126;6.878;2022-09-20T13:43:30;17.20;99.90
52103;DHT22;38101;53.126;6.878;2022-09-20T13:45:58;17.20;99.90
52103;DHT22;38101;53.126;6.878;2022-09-20T13:48:25;17.10;99.90
52103;DHT22;38101;53.126;6.878;2022-09-20T13:50:52;16.90;99.90
52103;DHT22;38101;53.126;6.878;2022-09-20T13:53:20;16.60;99.90
52103;DHT22;38101;53.126;6.878;2022-09-20T13:55:46;16.50;99.90
52103;DHT22;38101;53.126;6.878;2022-09-20T13:58:27;16.60;99.90
52103;DHT22;38101;53.126;6.878;2022-09-20T14:00:56;16.60;99.90
52103;DHT22;38101;53.126;6.878;2022-09-20T14:03:23;16.70;99.90
52103;DHT22;38101;53.126;6.878;2022-09-20T14:05:52;16.70;99.90
52103;DHT22;38101;53.126;6.878;2022-09-20T14:08:39;16.70;99.90
52103;DHT22;38101;53.126;6.878;2022-09-20T14:13:51;16.80;99.90
52103;DHT22;38101;53.126;6.878;2022-09-20T14:16:19;16.90;99.90
52103;DHT22;38101;53.126;6.878;2022-09-20T14:18:46;16.90;99.90
52103;DHT22;38101;53.126;6.878;2022-09-20T14:21:16;17.00;99.90
52103;DHT22;38101;53.126;6.878;2022-09-20T14:23:50;17.10;99.90
52103;DHT22;38101;53.126;6.878;2022-09-20T14:28:45;17.20;99.90
52103;DHT22;38101;53.126;6.878;2022-09-20T14:31:22;17.20;99.90
52103;DHT22;38101;53.126;6.878;2022-09-20T14:33:54;17.20;99.90
52103;DHT22;38101;53.126;6.878;2022-09-20T14:36:24;17.20;99.90
52103;DHT22;38101;53.126;6.878;2022-09-20T14:38:57;17.30;99.90
52103;DHT22;38101;53.126;6.878;2022-09-20T14:41:26;17.20;99.90
52103;DHT22;38101;53.126;6.878;2022-09-20T14:43:58;17.20;99.90
52103;DHT22;38101;53.126;6.878;2022-09-20T14:46:35;17.20;99.90
52103;DHT22;38101;53.126;6.878;2022-09-20T14:49:19;17.20;99.90
52103;DHT22;38101;53.126;6.878;2022-09-20T14:51:45;17.20;99.90
52103;DHT22;38101;53.126;6.878;2022-09-20T14:56:41;17.20;99.90
52103;DHT22;38101;53.126;6.878;2022-09-20T15:01:40;17.20;99.90
52103;DHT22;38101;53.126;6.878;2022-09-20T15:04:09;17.20;99.90
52103;DHT22;38101;53.126;6.878;2022-09-20T15:06:42;17.20;99.90
52103;DHT22;38101;53.126;6.878;2022-09-20T15:09:10;17.20;99.90
52103;DHT22;38101;53.126;6.878;2022-09-20T15:11:36;17.10;99.90
52103;DHT22;38101;53.126;6.878;2022-09-20T15:14:02;17.20;99.90
52103;DHT22;38101;53.126;6.878;2022-09-20T15:16:28;17.10;99.90
52103;DHT22;38101;53.126;6.878;2022-09-20T15:18:54;17.20;99.90
52103;DHT22;38101;53.126;6.878;2022-09-20T15:21:20;17.20;99.90
52103;DHT22;38101;53.126;6.878;2022-09-20T15:23:46;17.10;99.90
52103;DHT22;38101;53.126;6.878;2022-09-20T15:26:12;17.10;99.90
52103;DHT22;38101;53.126;6.878;2022-09-20T15:28:39;17.10;99.90
52103;DHT22;38101;53.126;6.878;2022-09-20T15:31:05;17.20;99.90
52103;DHT22;38101;53.126;6.878;2022-09-20T15:33:31;17.10;99.90
52103;DHT22;38101;53.126;6.878;2022-09-20T15:35:59;17.10;99.90
52103;DHT22;38101;53.126;6.878;2022-09-20T15:38:25;17.10;99.90
52103;DHT22;38101;53.126;6.878;2022-09-20T15:40:53;17.00;99.90
52103;DHT22;38101;53.126;6.878;2022-09-20T15:43:22;17.00;99.90
52103;DHT22;38101;53.126;6.878;2022-09-20T15:48:36;16.90;99.90
52103;DHT22;38101;53.126;6.878;2022-09-20T15:51:05;16.80;99.90
52103;DHT22;38101;53.126;6.878;2022-09-20T15:53:34;16.80;99.90
52103;DHT22;38101;53.126;6.878;2022-09-20T15:56:02;16.70;99.90
52103;DHT22;38101;53.126;6.878;2022-09-20T15:58:33;16.70;99.90
52103;DHT22;38101;53.126;6.878;2022-09-20T16:01:05;16.70;99.90
52103;DHT22;38101;53.126;6.878;2022-09-20T16:03:31;16.80;99.90
52103;DHT22;38101;53.126;6.878;2022-09-20T16:06:05;16.90;99.90
52103;DHT22;38101;53.126;6.878;2022-09-20T16:08:32;17.00;99.90
52103;DHT22;38101;53.126;6.878;2022-09-20T16:10:59;17.00;99.90
52103;DHT22;38101;53.126;6.878;2022-09-20T16:13:25;17.10;99.90
52103;DHT22;38101;53.126;6.878;2022-09-20T16:16:00;17.10;99.90
52103;DHT22;38101;53.126;6.878;2022-09-20T16:18:27;17.10;99.90
52103;DHT22;38101;53.126;6.878;2022-09-20T16:21:13;17.10;99.90
52103;DHT22;38101;53.126;6.878;2022-09-20T16:23:41;17.10;99.90
52103;DHT22;38101;53.126;6.878;2022-09-20T16:26:10;17.10;99.90
52103;DHT22;38101;53.126;6.878;2022-09-20T16:28:39;17.10;99.90
52103;DHT22;38101;53.126;6.878;2022-09-20T16:31:05;17.00;99.90
52103;DHT22;38101;53.126;6.878;2022-09-20T16:33:31;16.80;99.90
52103;DHT22;38101;53.126;6.878;2022-09-20T16:35:58;16.70;99.90
52103;DHT22;38101;53.126;6.878;2022-09-20T16:38:24;16.50;99.90
52103;DHT22;38101;53.126;6.878;2022-09-20T16:40:50;16.40;99.90
52103;DHT22;38101;53.126;6.878;2022-09-20T16:43:16;16.30;99.90
52103;DHT22;38101;53.126;6.878;2022-09-20T16:45:47;16.10;99.90
52103;DHT22;38101;53.126;6.878;2022-09-20T16:48:13;16.00;99.90
52103;DHT22;38101;53.126;6.878;2022-09-20T16:50:38;16.00;99.90
52103;DHT22;38101;53.126;6.878;2022-09-20T16:53:04;15.80;99.90
52103;DHT22;38101;53.126;6.878;2022-09-20T16:55:30;15.80;99.90
52103;DHT22;38101;53.126;6.878;2022-09-20T16:57:56;15.70;99.90
52103;DHT22;38101;53.126;6.878;2022-09-20T17:00:22;15.60;99.90
52103;DHT22;38101;53.126;6.878;2022-09-20T17:02:48;15.60;99.90
52103;DHT22;38101;53.126;6.878;2022-09-20T17:05:15;15.50;99.90
52103;DHT22;38101;53.126;6.878;2022-09-20T17:07:41;15.50;99.90
52103;DHT22;38101;53.126;6.878;2022-09-20T17:10:08;15.30;99.90
52103;DHT22;38101;53.126;6.878;2022-09-20T17:12:34;15.30;99.90
52103;DHT22;38101;53.126;6.878;2022-09-20T17:15:06;15.30;99.90
52103;DHT22;38101;53.126;6.878;2022-09-20T17:17:32;15.20;99.90
52103;DHT22;38101;53.126;6.878;2022-09-20T17:19:58;15.20;99.90
52103;DHT22;38101;53.126;6.878;2022-09-20T17:22:26;15.20;99.90
52103;DHT22;38101;53.126;6.878;2022-09-20T17:24:52;15.10;99.90
52103;DHT22;38101;53.126;6.878;2022-09-20T17:27:17;15.10;99.90
52103;DHT22;38101;53.126;6.878;2022-09-20T17:29:43;15.00;99.90
52103;DHT22;38101;53.126;6.878;2022-09-20T17:32:09;15.00;99.90
52103;DHT22;38101;53.126;6.878;2022-09-20T17:34:35;14.90;99.90
52103;DHT22;38101;53.126;6.878;2022-09-20T17:37:01;14.90;99.90
52103;DHT22;38101;53.126;6.878;2022-09-20T17:39:27;14.90;99.90
52103;DHT22;38101;53.126;6.878;2022-09-20T17:41:54;14.90;99.90
52103;DHT22;38101;53.126;6.878;2022-09-20T17:44:19;14.80;99.90
52103;DHT22;38101;53.126;6.878;2022-09-20T17:46:47;14.70;99.90
52103;DHT22;38101;53.126;6.878;2022-09-20T17:49:16;14.70;99.90
52103;DHT22;38101;53.126;6.878;2022-09-20T17:51:45;14.70;99.90
52103;DHT22;38101;53.126;6.878;2022-09-20T17:54:11;14.70;99.90
52103;DHT22;38101;53.126;6.878;2022-09-20T17:56:42;14.60;99.90
52103;DHT22;38101;53.126;6.878;2022-09-20T17:59:08;14.60;99.90
52103;DHT22;38101;53.126;6.878;2022-09-20T18:01:35;14.60;99.90
52103;DHT22;38101;53.126;6.878;2022-09-20T18:04:03;14.60;99.90
52103;DHT22;38101;53.126;6.878;2022-09-20T18:06:31;14.50;99.90
52103;DHT22;38101;53.126;6.878;2022-09-20T18:08:59;14.50;99.90
52103;DHT22;38101;53.126;6.878;2022-09-20T18:11:36;14.50;99.90
52103;DHT22;38101;53.126;6.878;2022-09-20T18:14:04;14.50;99.90
52103;DHT22;38101;53.126;6.878;2022-09-20T18:16:30;14.50;99.90
52103;DHT22;38101;53.126;6.878;2022-09-20T18:18:57;14.40;99.90
52103;DHT22;38101;53.126;6.878;2022-09-20T18:21:25;14.40;99.90
52103;DHT22;38101;53.126;6.878;2022-09-20T18:23:51;14.40;99.90
52103;DHT22;38101;53.126;6.878;2022-09-20T18:26:26;14.50;99.90
52103;DHT22;38101;53.126;6.878;2022-09-20T18:29:12;14.30;99.90
52103;DHT22;38101;53.126;6.878;2022-09-20T18:31:45;14.30;99.90
52103;DHT22;38101;53.126;6.878;2022-09-20T18:36:44;14.20;99.90
52103;DHT22;38101;53.126;6.878;2022-09-20T18:39:10;14.20;99.90
52103;DHT22;38101;53.126;6.878;2022-09-20T18:41:38;14.30;99.90
52103;DHT22;38101;53.126;6.878;2022-09-20T18:44:06;14.20;99.90
52103;DHT22;38101;53.126;6.878;2022-09-20T18:46:33;14.20;99.90
52103;DHT22;38101;53.126;6.878;2022-09-20T18:49:05;14.30;99.90
52103;DHT22;38101;53.126;6.878;2022-09-20T18:51:31;14.20;99.90
52103;DHT22;38101;53.126;6.878;2022-09-20T18:53:57;14.20;99.90
52103;DHT22;38101;53.126;6.878;2022-09-20T18:58:53;14.10;99.90
52103;DHT22;38101;53.126;6.878;2022-09-20T19:06:40;14.00;99.90
52103;DHT22;38101;53.126;6.878;2022-09-20T19:09:32;13.90;99.90
52103;DHT22;38101;53.126;6.878;2022-09-20T19:12:05;13.80;99.90
52103;DHT22;38101;53.126;6.878;2022-09-20T19:15:04;13.80;99.90
52103;DHT22;38101;53.126;6.878;2022-09-20T19:20:51;13.70;99.90
52103;DHT22;38101;53.126;6.878;2022-09-20T19:26:23;13.60;99.90
52103;DHT22;38101;53.126;6.878;2022-09-20T19:28:51;13.60;99.90
52103;DHT22;38101;53.126;6.878;2022-09-20T19:31:23;13.50;99.90
52103;DHT22;38101;53.126;6.878;2022-09-20T19:33:50;13.50;99.90
52103;DHT22;38101;53.126;6.878;2022-09-20T19:36:20;13.40;99.90
52103;DHT22;38101;53.126;6.878;2022-09-20T19:41:36;13.40;99.90
52103;DHT22;38101;53.126;6.878;2022-09-20T19:49:42;13.20;99.90
52103;DHT22;38101;53.126;6.878;2022-09-20T19:52:11;13.10;99.90
52103;DHT22;38101;53.126;6.878;2022-09-20T19:54:40;13.10;99.90
52103;DHT22;38101;53.126;6.878;2022-09-20T19:57:19;13.10;99.90
52103;DHT22;38101;53.126;6.878;2022-09-20T19:59:45;13.00;99.90
52103;DHT22;38101;53.126;6.878;2022-09-20T20:02:11;13.00;99.90
52103;DHT22;38101;53.126;6.878;2022-09-20T20:04:37;12.90;99.90
52103;DHT22;38101;53.126;6.878;2022-09-20T20:09:46;12.90;99.90
52103;DHT22;38101;53.126;6.878;2022-09-20T20:18:05;12.70;99.90
52103;DHT22;38101;53.126;6.878;2022-09-20T20:20:39;12.70;99.90
52103;DHT22;38101;53.126;6.878;2022-09-20T20:26:18;12.60;99.90
52103;DHT22;38101;53.126;6.878;2022-09-20T20:28:44;12.60;99.90
52103;DHT22;38101;53.126;6.878;2022-09-20T20:31:09;12.50;99.90
52103;DHT22;38101;53.126;6.878;2022-09-20T20:33:37;12.50;99.90
52103;DHT22;38101;53.126;6.878;2022-09-20T20:36:04;12.40;99.90
52103;DHT22;38101;53.126;6.878;2022-09-20T20:38:40;12.40;99.90
52103;DHT22;38101;53.126;6.878;2022-09-20T20:41:10;12.30;99.90
52103;DHT22;38101;53.126;6.878;2022-09-20T20:43:40;12.30;99.90
52103;DHT22;38101;53.126;6.878;2022-09-20T20:46:08;12.30;99.90
52103;DHT22;38101;53.126;6.878;2022-09-20T20:48:34;12.30;99.90
52103;DHT22;38101;53.126;6.878;2022-09-20T20:51:09;12.30;99.90
52103;DHT22;38101;53.126;6.878;2022-09-20T20:53:40;12.30;99.90
52103;DHT22;38101;53.126;6.878;2022-09-20T20:56:12;12.20;99.90
52103;DHT22;38101;53.126;6.878;2022-09-20T20:58:39;12.20;99.90
52103;DHT22;38101;53.126;6.878;2022-09-20T21:03:52;12.10;99.90
52103;DHT22;38101;53.126;6.878;2022-09-20T21:06:19;12.00;99.90
52103;DHT22;38101;53.126;6.878;2022-09-20T21:08:47;11.90;99.90
52103;DHT22;38101;53.126;6.878;2022-09-20T21:11:17;11.90;99.90
52103;DHT22;38101;53.126;6.878;2022-09-20T21:13:43;11.90;99.90
52103;DHT22;38101;53.126;6.878;2022-09-20T21:16:11;11.90;99.90
52103;DHT22;38101;53.126;6.878;2022-09-20T21:18:39;11.90;99.90
52103;DHT22;38101;53.126;6.878;2022-09-20T21:21:26;11.90;99.90
52103;DHT22;38101;53.126;6.878;2022-09-20T21:23:54;11.90;99.90
52103;DHT22;38101;53.126;6.878;2022-09-20T21:26:21;11.90;99.90
52103;DHT22;38101;53.126;6.878;2022-09-20T21:28:52;11.80;99.90
52103;DHT22;38101;53.126;6.878;2022-09-20T21:31:20;11.80;99.90
52103;DHT22;38101;53.126;6.878;2022-09-20T21:33:46;11.70;99.90
52103;DHT22;38101;53.126;6.878;2022-09-20T21:36:16;11.70;99.90
52103;DHT22;38101;53.126;6.878;2022-09-20T21:38:43;11.70;99.90
52103;DHT22;38101;53.126;6.878;2022-09-20T21:41:14;11.70;99.90
52103;DHT22;38101;53.126;6.878;2022-09-20T21:43:42;11.60;99.90
52103;DHT22;38101;53.126;6.878;2022-09-20T21:46:16;11.60;99.90
52103;DHT22;38101;53.126;6.878;2022-09-20T21:48:46;11.50;99.90
52103;DHT22;38101;53.126;6.878;2022-09-20T21:51:13;11.50;99.90
52103;DHT22;38101;53.126;6.878;2022-09-20T21:53:40;11.40;99.90